sensor_id;sensor_type;location;lat;lon;timestamp;pressure;altitude;pressure_sealevel;temperature;humidity
73085;BME280;62974;49.460;10.892;2022-11-14T00:01:20;97914.06;;;4.51;84.89
73085;BME280;62974;49.460;10.892;2022-11-14T00:03:48;97916.06;;;4.49;85.09
73085;BME280;62974;49.460;10.892;2022-11-14T00:06:16;97906.91;;;4.51;84.28
73085;BME280;62974;49.460;10.892;2022-11-14T00:08:43;97907.41;;;4.47;84.74
73085;BME280;62974;49.460;10.892;2022-11-14T00:11:11;97912.38;;;4.42;84.72
73085;BME280;62974;49.460;10.892;2022-11-14T00:13:38;97915.22;;;4.48;84.54
73085;BME280;62974;49.460;10.892;2022-11-14T00:16:05;97905.25;;;4.50;84.58
73085;BME280;62974;49.460;10.892;2022-11-14T00:18:34;97904.06;;;4.45;85.18
73085;BME280;62974;49.460;10.892;2022-11-14T00:21:02;97898.06;;;4.43;84.60
73085;BME280;62974;49.460;10.892;2022-11-14T00:23:29;97902.72;;;4.41;84.75
73085;BME280;62974;49.460;10.892;2022-11-14T00:25:57;97893.22;;;4.38;83.51
73085;BME280;62974;49.460;10.892;2022-11-14T00:28:24;97894.53;;;4.34;83.85
73085;BME280;62974;49.460;10.892;2022-11-14T00:30:52;97887.41;;;4.35;83.88
73085;BME280;62974;49.460;10.892;2022-11-14T00:33:19;97898.03;;;4.35;84.12
73085;BME280;62974;49.460;10.892;2022-11-14T00:35:53;97899.72;;;4.36;83.78
73085;BME280;62974;49.460;10.892;2022-11-14T00:38:21;97892.72;;;4.35;84.59
73085;BME280;62974;49.460;10.892;2022-11-14T00:40:49;97889.22;;;4.34;84.58
73085;BME280;62974;49.460;10.892;2022-11-14T00:43:17;97885.06;;;4.32;85.37
73085;BME280;62974;49.460;10.892;2022-11-14T00:45:45;97882.75;;;4.29;85.92
73085;BME280;62974;49.460;10.892;2022-11-14T00:48:13;97890.84;;;4.27;86.27
73085;BME280;62974;49.460;10.892;2022-11-14T00:50:41;97875.38;;;4.22;84.11
73085;BME280;62974;49.460;10.892;2022-11-14T00:53:11;97876.44;;;4.30;85.08
73085;BME280;62974;49.460;10.892;2022-11-14T00:55:38;97871.78;;;4.32;85.17
73085;BME280;62974;49.460;10.892;2022-11-14T00:58:06;97875.41;;;4.31;84.21
73085;BME280;62974;49.460;10.892;2022-11-14T01:00:34;97872.72;;;4.22;84.56
73085;BME280;62974;49.460;10.892;2022-11-14T01:03:02;97871.56;;;4.17;84.96
73085;BME280;62974;49.460;10.892;2022-11-14T01:05:29;97867.75;;;4.19;83.62
73085;BME280;62974;49.460;10.892;2022-11-14T01:07:57;97865.41;;;4.16;83.66
73085;BME280;62974;49.460;10.892;2022-11-14T01:10:25;97866.56;;;4.22;85.04
73085;BME280;62974;49.460;10.892;2022-11-14T01:12:53;97874.00;;;4.10;82.68
73085;BME280;62974;49.460;10.892;2022-11-14T01:15:20;97868.69;;;4.10;83.51
73085;BME280;62974;49.460;10.892;2022-11-14T01:17:48;97868.22;;;4.15;84.04
73085;BME280;62974;49.460;10.892;2022-11-14T01:20:16;97864.38;;;4.09;83.66
73085;BME280;62974;49.460;10.892;2022-11-14T01:22:44;97860.72;;;4.10;83.18
73085;BME280;62974;49.460;10.892;2022-11-14T01:25:11;97865.88;;;4.12;83.79
73085;BME280;62974;49.460;10.892;2022-11-14T01:27:40;97857.91;;;4.12;84.35
73085;BME280;62974;49.460;10.892;2022-11-14T01:30:08;97859.34;;;4.06;84.60
73085;BME280;62974;49.460;10.892;2022-11-14T01:32:35;97857.53;;;4.07;84.48
73085;BME280;62974;49.460;10.892;2022-11-14T01:35:03;97852.69;;;4.02;84.34
73085;BME280;62974;49.460;10.892;2022-11-14T01:37:31;97849.06;;;4.03;82.93
73085;BME280;62974;49.460;10.892;2022-11-14T01:39:58;97850.72;;;4.04;83.84
73085;BME280;62974;49.460;10.892;2022-11-14T01:42:26;97846.88;;;3.99;82.77
73085;BME280;62974;49.460;10.892;2022-11-14T01:44:55;97840.22;;;3.95;82.63
73085;BME280;62974;49.460;10.892;2022-11-14T01:47:26;97847.34;;;3.94;83.78
73085;BME280;62974;49.460;10.892;2022-11-14T01:49:57;97836.06;;;3.92;83.21
73085;BME280;62974;49.460;10.892;2022-11-14T01:52:28;97825.75;;;3.89;82.49
73085;BME280;62974;49.460;10.892;2022-11-14T01:54:59;97834.03;;;3.86;82.83
73085;BME280;62974;49.460;10.892;2022-11-14T01:57:30;97829.84;;;3.84;82.87
73085;BME280;62974;49.460;10.892;2022-11-14T02:00:03;97835.38;;;3.90;82.87
73085;BME280;62974;49.460;10.892;2022-11-14T02:02:31;97831.22;;;3.88;83.33
73085;BME280;62974;49.460;10.892;2022-11-14T02:05:02;97826.38;;;3.83;82.77
73085;BME280;62974;49.460;10.892;2022-11-14T02:07:33;97823.88;;;3.82;82.67
73085;BME280;62974;49.460;10.892;2022-11-14T02:10:06;97822.88;;;3.83;82.96
73085;BME280;62974;49.460;10.892;2022-11-14T02:12:34;97827.38;;;3.82;82.42
73085;BME280;62974;49.460;10.892;2022-11-14T02:15:05;97825.06;;;3.87;84.39
73085;BME280;62974;49.460;10.892;2022-11-14T02:17:32;97817.56;;;3.83;83.86
73085;BME280;62974;49.460;10.892;2022-11-14T02:20:18;97821.53;;;3.78;84.51
73085;BME280;62974;49.460;10.892;2022-11-14T02:22:46;97820.41;;;3.81;83.40
73085;BME280;62974;49.460;10.892;2022-11-14T02:25:16;97823.66;;;3.75;83.94
73085;BME280;62974;49.460;10.892;2022-11-14T02:27:44;97818.34;;;3.75;83.66
73085;BME280;62974;49.460;10.892;2022-11-14T02:30:15;97809.69;;;3.65;81.90
73085;BME280;62974;49.460;10.892;2022-11-14T02:32:43;97810.50;;;3.65;83.14
73085;BME280;62974;49.460;10.892;2022-11-14T02:35:31;97813.16;;;3.65;82.78
73085;BME280;62974;49.460;10.892;2022-11-14T02:37:59;97817.19;;;3.69;83.85
73085;BME280;62974;49.460;10.892;2022-11-14T02:40:26;97807.69;;;3.67;83.05
73085;BME280;62974;49.460;10.892;2022-11-14T02:42:54;97799.53;;;3.60;81.57
73085;BME280;62974;49.460;10.892;2022-11-14T02:45:21;97803.34;;;3.58;83.08
73085;BME280;62974;49.460;10.892;2022-11-14T02:47:49;97802.38;;;3.67;82.32
73085;BME280;62974;49.460;10.892;2022-11-14T02:50:16;97797.00;;;3.59;82.68
73085;BME280;62974;49.460;10.892;2022-11-14T02:52:45;97794.53;;;3.57;82.20
73085;BME280;62974;49.460;10.892;2022-11-14T02:55:13;97786.56;;;3.57;83.44
73085;BME280;62974;49.460;10.892;2022-11-14T02:57:40;97795.53;;;3.56;82.47
73085;BME280;62974;49.460;10.892;2022-11-14T03:00:08;97793.38;;;3.60;82.22
73085;BME280;62974;49.460;10.892;2022-11-14T03:02:40;97809.47;;;3.33;82.88
73085;BME280;62974;49.460;10.892;2022-11-14T03:05:08;97816.91;;;3.55;82.22
73085;BME280;62974;49.460;10.892;2022-11-14T03:07:35;97825.19;;;3.52;82.88
73085;BME280;62974;49.460;10.892;2022-11-14T03:10:05;97828.75;;;3.43;83.27
73085;BME280;62974;49.460;10.892;2022-11-14T03:12:33;97820.84;;;3.51;84.52
73085;BME280;62974;49.460;10.892;2022-11-14T03:15:00;97823.69;;;3.49;82.57
73085;BME280;62974;49.460;10.892;2022-11-14T03:17:30;97824.00;;;3.46;83.04
73085;BME280;62974;49.460;10.892;2022-11-14T03:19:57;97816.84;;;3.47;83.47
73085;BME280;62974;49.460;10.892;2022-11-14T03:22:25;97812.28;;;0.95;92.26
73085;BME280;62974;49.460;10.892;2022-11-14T03:24:53;97806.19;;;2.60;91.90
73085;BME280;62974;49.460;10.892;2022-11-14T03:27:21;97804.41;;;3.21;85.55
73085;BME280;62974;49.460;10.892;2022-11-14T03:29:49;97797.28;;;3.48;84.41
73085;BME280;62974;49.460;10.892;2022-11-14T03:32:16;97787.00;;;3.45;84.22
73085;BME280;62974;49.460;10.892;2022-11-14T03:34:44;97787.78;;;3.37;84.61
73085;BME280;62974;49.460;10.892;2022-11-14T03:37:11;97790.75;;;3.34;83.45
73085;BME280;62974;49.460;10.892;2022-11-14T03:39:39;97788.91;;;3.35;82.85
73085;BME280;62974;49.460;10.892;2022-11-14T03:42:06;97790.38;;;3.29;82.67
73085;BME280;62974;49.460;10.892;2022-11-14T03:44:36;97791.88;;;3.31;84.27
73085;BME280;62974;49.460;10.892;2022-11-14T03:47:03;97789.59;;;3.37;84.62
73085;BME280;62974;49.460;10.892;2022-11-14T03:49:31;97791.72;;;3.33;82.87
73085;BME280;62974;49.460;10.892;2022-11-14T03:51:58;97792.84;;;3.30;83.79
73085;BME280;62974;49.460;10.892;2022-11-14T03:54:25;97796.56;;;3.38;85.01
73085;BME280;62974;49.460;10.892;2022-11-14T03:56:53;97798.97;;;3.05;84.05
73085;BME280;62974;49.460;10.892;2022-11-14T03:59:20;97814.63;;;3.34;84.90
73085;BME280;62974;49.460;10.892;2022-11-14T04:01:49;97808.63;;;3.32;84.15
73085;BME280;62974;49.460;10.892;2022-11-14T04:04:16;97802.78;;;3.28;83.67
73085;BME280;62974;49.460;10.892;2022-11-14T04:06:44;97803.31;;;3.32;83.11
73085;BME280;62974;49.460;10.892;2022-11-14T04:09:11;97799.88;;;3.14;83.12
73085;BME280;62974;49.460;10.892;2022-11-14T04:11:39;97799.41;;;3.18;83.39
73085;BME280;62974;49.460;10.892;2022-11-14T04:14:06;97786.75;;;3.12;83.36
73085;BME280;62974;49.460;10.892;2022-11-14T04:16:34;97797.94;;;3.24;83.61
73085;BME280;62974;49.460;10.892;2022-11-14T04:19:03;97808.25;;;3.27;84.05
73085;BME280;62974;49.460;10.892;2022-11-14T04:21:30;97796.00;;;3.26;82.77
73085;BME280;62974;49.460;10.892;2022-11-14T04:23:58;97805.72;;;3.17;81.83
73085;BME280;62974;49.460;10.892;2022-11-14T04:26:25;97796.59;;;3.20;83.11
73085;BME280;62974;49.460;10.892;2022-11-14T04:28:53;97802.34;;;3.15;83.13
73085;BME280;62974;49.460;10.892;2022-11-14T04:31:21;97796.38;;;3.13;82.89
73085;BME280;62974;49.460;10.892;2022-11-14T04:33:48;97805.19;;;3.14;82.43
73085;BME280;62974;49.460;10.892;2022-11-14T04:36:17;97804.53;;;2.76;85.53
73085;BME280;62974;49.460;10.892;2022-11-14T04:38:44;97793.75;;;2.43;84.19
73085;BME280;62974;49.460;10.892;2022-11-14T04:41:12;97783.53;;;2.83;83.85
73085;BME280;62974;49.460;10.892;2022-11-14T04:43:39;97798.22;;;2.95;83.81
73085;BME280;62974;49.460;10.892;2022-11-14T04:46:10;97792.69;;;3.06;84.03
73085;BME280;62974;49.460;10.892;2022-11-14T04:48:38;97794.91;;;2.58;83.83
73085;BME280;62974;49.460;10.892;2022-11-14T04:51:05;97802.69;;;2.42;86.03
73085;BME280;62974;49.460;10.892;2022-11-14T04:53:34;97800.59;;;2.18;85.19
73085;BME280;62974;49.460;10.892;2022-11-14T04:56:02;97789.31;;;2.78;83.98
73085;BME280;62974;49.460;10.892;2022-11-14T04:58:29;97794.59;;;2.96;83.17
73085;BME280;62974;49.460;10.892;2022-11-14T05:00:57;97789.22;;;2.70;83.30
73085;BME280;62974;49.460;10.892;2022-11-14T05:03:25;97792.78;;;2.97;82.07
73085;BME280;62974;49.460;10.892;2022-11-14T05:05:52;97784.28;;;2.93;83.56
73085;BME280;62974;49.460;10.892;2022-11-14T05:08:20;97791.63;;;2.99;82.85
73085;BME280;62974;49.460;10.892;2022-11-14T05:10:48;97784.75;;;2.89;84.67
73085;BME280;62974;49.460;10.892;2022-11-14T05:13:16;97796.63;;;2.49;87.13
73085;BME280;62974;49.460;10.892;2022-11-14T05:15:43;97806.22;;;1.78;93.37
73085;BME280;62974;49.460;10.892;2022-11-14T05:18:11;97805.03;;;2.80;90.36
73085;BME280;62974;49.460;10.892;2022-11-14T05:20:39;97817.13;;;2.47;93.59
73085;BME280;62974;49.460;10.892;2022-11-14T05:23:06;97808.16;;;2.58;95.58
73085;BME280;62974;49.460;10.892;2022-11-14T05:25:34;97812.84;;;2.81;92.13
73085;BME280;62974;49.460;10.892;2022-11-14T05:28:03;97811.72;;;2.84;93.86
73085;BME280;62974;49.460;10.892;2022-11-14T05:30:30;97802.41;;;2.62;94.27
73085;BME280;62974;49.460;10.892;2022-11-14T05:32:57;97809.56;;;2.52;97.90
73085;BME280;62974;49.460;10.892;2022-11-14T05:35:26;97815.19;;;2.67;97.47
73085;BME280;62974;49.460;10.892;2022-11-14T05:37:53;97815.03;;;2.68;98.98
73085;BME280;62974;49.460;10.892;2022-11-14T05:40:25;97822.84;;;2.70;98.10
73085;BME280;62974;49.460;10.892;2022-11-14T05:42:53;97815.78;;;2.96;95.29
73085;BME280;62974;49.460;10.892;2022-11-14T05:45:22;97816.34;;;2.47;98.90
73085;BME280;62974;49.460;10.892;2022-11-14T05:47:50;97818.84;;;2.21;100.00
73085;BME280;62974;49.460;10.892;2022-11-14T05:50:20;97810.88;;;2.83;100.00
73085;BME280;62974;49.460;10.892;2022-11-14T05:52:47;97821.38;;;2.40;100.00
73085;BME280;62974;49.460;10.892;2022-11-14T05:55:15;97837.94;;;2.69;100.00
73085;BME280;62974;49.460;10.892;2022-11-14T05:57:49;97824.66;;;2.52;100.00
73085;BME280;62974;49.460;10.892;2022-11-14T06:00:17;97825.50;;;2.70;100.00
73085;BME280;62974;49.460;10.892;2022-11-14T06:02:46;97826.00;;;2.56;100.00
73085;BME280;62974;49.460;10.892;2022-11-14T06:05:13;97828.25;;;2.78;100.00
73085;BME280;62974;49.460;10.892;2022-11-14T06:07:41;97824.41;;;3.16;95.91
73085;BME280;62974;49.460;10.892;2022-11-14T06:10:08;97819.13;;;2.63;100.00
73085;BME280;62974;49.460;10.892;2022-11-14T06:12:36;97831.56;;;2.62;100.00
73085;BME280;62974;49.460;10.892;2022-11-14T06:15:04;97823.59;;;2.80;99.24
73085;BME280;62974;49.460;10.892;2022-11-14T06:17:31;97818.78;;;3.19;97.21
73085;BME280;62974;49.460;10.892;2022-11-14T06:20:00;97821.56;;;3.09;95.32
73085;BME280;62974;49.460;10.892;2022-11-14T06:22:27;97821.56;;;2.92;95.18
73085;BME280;62974;49.460;10.892;2022-11-14T06:24:55;97820.03;;;3.07;97.16
73085;BME280;62974;49.460;10.892;2022-11-14T06:27:22;97823.88;;;3.30;93.99
73085;BME280;62974;49.460;10.892;2022-11-14T06:29:50;97815.50;;;2.99;94.84
73085;BME280;62974;49.460;10.892;2022-11-14T06:32:17;97823.81;;;3.04;93.58
73085;BME280;62974;49.460;10.892;2022-11-14T06:34:45;97819.34;;;3.22;94.42
73085;BME280;62974;49.460;10.892;2022-11-14T06:37:13;97836.09;;;3.05;95.19
73085;BME280;62974;49.460;10.892;2022-11-14T06:39:41;97864.91;;;2.82;98.10
73085;BME280;62974;49.460;10.892;2022-11-14T06:42:08;97860.03;;;3.31;95.25
73085;BME280;62974;49.460;10.892;2022-11-14T06:44:36;97844.97;;;2.61;99.18
73085;BME280;62974;49.460;10.892;2022-11-14T06:47:03;97853.56;;;2.63;100.00
73085;BME280;62974;49.460;10.892;2022-11-14T06:49:31;97852.03;;;3.05;98.22
73085;BME280;62974;49.460;10.892;2022-11-14T06:52:05;97830.34;;;3.10;98.69
73085;BME280;62974;49.460;10.892;2022-11-14T06:54:34;97839.38;;;2.81;99.39
73085;BME280;62974;49.460;10.892;2022-11-14T06:57:01;97854.38;;;3.26;98.67
73085;BME280;62974;49.460;10.892;2022-11-14T06:59:29;97860.88;;;2.96;99.20
73085;BME280;62974;49.460;10.892;2022-11-14T07:01:56;97858.44;;;3.20;98.22
73085;BME280;62974;49.460;10.892;2022-11-14T07:04:24;97848.31;;;2.80;100.00
73085;BME280;62974;49.460;10.892;2022-11-14T07:06:51;97841.50;;;2.78;100.00
73085;BME280;62974;49.460;10.892;2022-11-14T07:09:19;97851.75;;;2.63;100.00
73085;BME280;62974;49.460;10.892;2022-11-14T07:11:48;97853.16;;;3.20;99.90
73085;BME280;62974;49.460;10.892;2022-11-14T07:14:15;97859.44;;;3.37;97.98
73085;BME280;62974;49.460;10.892;2022-11-14T07:16:43;97859.06;;;2.79;100.00
73085;BME280;62974;49.460;10.892;2022-11-14T07:19:10;97851.19;;;2.87;100.00
73085;BME280;62974;49.460;10.892;2022-11-14T07:21:38;97842.25;;;3.06;100.00
73085;BME280;62974;49.460;10.892;2022-11-14T07:24:06;97847.66;;;3.40;98.84
73085;BME280;62974;49.460;10.892;2022-11-14T07:26:34;97854.44;;;3.34;98.24
73085;BME280;62974;49.460;10.892;2022-11-14T07:29:03;97877.09;;;3.46;97.81
73085;BME280;62974;49.460;10.892;2022-11-14T07:31:30;97900.28;;;2.91;100.00
73085;BME280;62974;49.460;10.892;2022-11-14T07:33:57;97904.69;;;3.36;99.20
73085;BME280;62974;49.460;10.892;2022-11-14T07:36:25;97900.34;;;2.99;100.00
73085;BME280;62974;49.460;10.892;2022-11-14T07:38:53;97892.16;;;2.75;100.00
73085;BME280;62974;49.460;10.892;2022-11-14T07:41:21;97898.94;;;3.22;100.00
73085;BME280;62974;49.460;10.892;2022-11-14T07:43:48;97902.69;;;3.55;99.47
73085;BME280;62974;49.460;10.892;2022-11-14T07:46:17;97894.13;;;3.44;98.09
73085;BME280;62974;49.460;10.892;2022-11-14T07:48:44;97907.09;;;3.47;99.43
73085;BME280;62974;49.460;10.892;2022-11-14T07:51:14;97883.59;;;2.99;100.00
73085;BME280;62974;49.460;10.892;2022-11-14T07:53:42;97869.19;;;3.19;100.00
73085;BME280;62974;49.460;10.892;2022-11-14T07:56:10;97856.38;;;3.32;100.00
73085;BME280;62974;49.460;10.892;2022-11-14T07:58:39;97858.72;;;3.53;98.58
73085;BME280;62974;49.460;10.892;2022-11-14T08:01:09;97856.56;;;3.56;98.75
73085;BME280;62974;49.460;10.892;2022-11-14T08:03:39;97855.41;;;3.59;98.99
73085;BME280;62974;49.460;10.892;2022-11-14T08:06:12;97862.91;;;3.63;98.67
73085;BME280;62974;49.460;10.892;2022-11-14T08:08:40;97863.38;;;3.59;100.00
73085;BME280;62974;49.460;10.892;2022-11-14T08:11:08;97865.13;;;3.42;100.00
73085;BME280;62974;49.460;10.892;2022-11-14T08:13:36;97844.75;;;3.51;100.00
73085;BME280;62974;49.460;10.892;2022-11-14T08:16:04;97843.97;;;3.58;100.00
73085;BME280;62974;49.460;10.892;2022-11-14T08:18:40;97842.84;;;3.61;100.00
73085;BME280;62974;49.460;10.892;2022-11-14T08:21:07;97853.78;;;3.58;100.00
73085;BME280;62974;49.460;10.892;2022-11-14T08:23:35;97848.19;;;3.69;100.00
73085;BME280;62974;49.460;10.892;2022-11-14T08:26:02;97849.19;;;3.68;100.00
73085;BME280;62974;49.460;10.892;2022-11-14T08:28:30;97848.09;;;3.53;100.00
73085;BME280;62974;49.460;10.892;2022-11-14T08:30:58;97847.16;;;3.62;100.00
73085;BME280;62974;49.460;10.892;2022-11-14T08:33:26;97841.59;;;3.73;100.00
73085;BME280;62974;49.460;10.892;2022-11-14T08:35:59;97844.38;;;3.71;100.00
73085;BME280;62974;49.460;10.892;2022-11-14T08:38:26;97852.59;;;3.78;100.00
73085;BME280;62974;49.460;10.892;2022-11-14T08:40:56;97853.25;;;3.80;100.00
73085;BME280;62974;49.460;10.892;2022-11-14T08:43:24;97849.16;;;3.86;100.00
73085;BME280;62974;49.460;10.892;2022-11-14T08:45:55;97852.97;;;3.91;100.00
73085;BME280;62974;49.460;10.892;2022-11-14T08:48:27;97858.50;;;3.98;100.00
73085;BME280;62974;49.460;10.892;2022-11-14T08:51:01;97864.44;;;3.92;100.00
73085;BME280;62974;49.460;10.892;2022-11-14T08:53:29;97863.50;;;4.01;100.00
73085;BME280;62974;49.460;10.892;2022-11-14T08:55:57;97856.50;;;4.00;100.00
73085;BME280;62974;49.460;10.892;2022-11-14T08:58:26;97840.56;;;4.00;100.00
73085;BME280;62974;49.460;10.892;2022-11-14T09:00:58;97850.03;;;4.02;100.00
73085;BME280;62974;49.460;10.892;2022-11-14T09:03:26;97850.06;;;4.10;100.00
73085;BME280;62974;49.460;10.892;2022-11-14T09:05:54;97849.75;;;4.05;100.00
73085;BME280;62974;49.460;10.892;2022-11-14T09:08:23;97863.88;;;4.06;100.00
73085;BME280;62974;49.460;10.892;2022-11-14T09:10:50;97854.44;;;4.19;100.00
73085;BME280;62974;49.460;10.892;2022-11-14T09:13:18;97864.94;;;4.21;100.00
73085;BME280;62974;49.460;10.892;2022-11-14T09:15:46;97864.09;;;4.20;100.00
73085;BME280;62974;49.460;10.892;2022-11-14T09:18:13;97867.38;;;4.14;100.00
73085;BME280;62974;49.460;10.892;2022-11-14T09:20:41;97871.59;;;4.25;100.00
73085;BME280;62974;49.460;10.892;2022-11-14T09:23:09;97871.13;;;4.30;100.00
73085;BME280;62974;49.460;10.892;2022-11-14T09:25:38;97865.25;;;4.26;100.00
73085;BME280;62974;49.460;10.892;2022-11-14T09:28:06;97869.59;;;4.27;100.00
73085;BME280;62974;49.460;10.892;2022-11-14T09:30:35;97859.19;;;4.34;100.00
73085;BME280;62974;49.460;10.892;2022-11-14T09:33:03;97857.53;;;4.41;100.00
73085;BME280;62974;49.460;10.892;2022-11-14T09:35:37;97854.91;;;4.49;100.00
73085;BME280;62974;49.460;10.892;2022-11-14T09:38:06;97849.59;;;4.49;100.00
73085;BME280;62974;49.460;10.892;2022-11-14T09:40:48;97854.44;;;4.53;100.00
73085;BME280;62974;49.460;10.892;2022-11-14T09:43:35;97862.25;;;4.63;100.00
73085;BME280;62974;49.460;10.892;2022-11-14T09:46:14;97870.22;;;4.63;100.00
73085;BME280;62974;49.460;10.892;2022-11-14T09:48:43;97868.59;;;4.70;100.00
73085;BME280;62974;49.460;10.892;2022-11-14T09:51:15;97873.25;;;4.68;100.00
73085;BME280;62974;49.460;10.892;2022-11-14T09:53:46;97875.78;;;4.78;100.00
73085;BME280;62974;49.460;10.892;2022-11-14T09:56:21;97881.28;;;4.84;100.00
73085;BME280;62974;49.460;10.892;2022-11-14T09:58:51;97883.94;;;4.84;100.00
73085;BME280;62974;49.460;10.892;2022-11-14T10:01:31;97879.28;;;4.94;100.00
73085;BME280;62974;49.460;10.892;2022-11-14T10:04:10;97869.16;;;4.98;100.00
73085;BME280;62974;49.460;10.892;2022-11-14T10:06:46;97864.22;;;5.35;100.00
73085;BME280;62974;49.460;10.892;2022-11-14T10:09:40;97862.38;;;5.19;100.00
73085;BME280;62974;49.460;10.892;2022-11-14T10:12:14;97856.72;;;5.22;100.00
73085;BME280;62974;49.460;10.892;2022-11-14T10:15:05;97867.69;;;5.28;100.00
73085;BME280;62974;49.460;10.892;2022-11-14T10:17:49;97861.53;;;5.67;100.00
73085;BME280;62974;49.460;10.892;2022-11-14T10:20:24;97861.53;;;5.67;100.00
73085;BME280;62974;49.460;10.892;2022-11-14T10:23:06;97851.22;;;5.56;99.99
73085;BME280;62974;49.460;10.892;2022-11-14T10:25:45;97854.50;;;5.83;100.00
73085;BME280;62974;49.460;10.892;2022-11-14T10:28:33;97846.00;;;6.03;100.00
73085;BME280;62974;49.460;10.892;2022-11-14T10:31:12;97847.66;;;6.12;99.77
73085;BME280;62974;49.460;10.892;2022-11-14T10:33:49;97858.53;;;5.62;100.00
73085;BME280;62974;49.460;10.892;2022-11-14T10:36:27;97861.66;;;5.82;100.00
73085;BME280;62974;49.460;10.892;2022-11-14T10:39:06;97872.22;;;6.39;99.73
73085;BME280;62974;49.460;10.892;2022-11-14T10:41:38;97871.94;;;6.18;98.70
73085;BME280;62974;49.460;10.892;2022-11-14T10:44:28;97871.66;;;6.51;97.80
73085;BME280;62974;49.460;10.892;2022-11-14T10:47:01;97877.59;;;7.00;98.06
73085;BME280;62974;49.460;10.892;2022-11-14T10:49:31;97882.03;;;6.46;97.82
73085;BME280;62974;49.460;10.892;2022-11-14T10:52:04;97876.88;;;7.29;94.03
73085;BME280;62974;49.460;10.892;2022-11-14T10:54:37;97883.47;;;6.96;94.17
73085;BME280;62974;49.460;10.892;2022-11-14T10:57:14;97881.38;;;7.06;95.29
73085;BME280;62974;49.460;10.892;2022-11-14T10:59:43;97879.75;;;6.97;96.60
73085;BME280;62974;49.460;10.892;2022-11-14T11:02:11;97880.66;;;6.89;96.13
73085;BME280;62974;49.460;10.892;2022-11-14T11:04:39;97871.53;;;6.84;94.70
73085;BME280;62974;49.460;10.892;2022-11-14T11:07:22;97870.91;;;7.27;95.92
73085;BME280;62974;49.460;10.892;2022-11-14T11:10:18;97882.19;;;6.84;96.80
73085;BME280;62974;49.460;10.892;2022-11-14T11:13:02;97876.06;;;6.75;97.01
73085;BME280;62974;49.460;10.892;2022-11-14T11:15:38;97875.81;;;6.85;97.29
73085;BME280;62974;49.460;10.892;2022-11-14T11:18:24;97879.03;;;7.11;95.79
73085;BME280;62974;49.460;10.892;2022-11-14T11:21:06;97872.25;;;7.46;93.59
73085;BME280;62974;49.460;10.892;2022-11-14T11:23:35;97869.53;;;7.08;94.88
73085;BME280;62974;49.460;10.892;2022-11-14T11:26:04;97862.03;;;7.72;93.26
73085;BME280;62974;49.460;10.892;2022-11-14T11:28:35;97875.84;;;7.16;95.07
73085;BME280;62974;49.460;10.892;2022-11-14T11:31:05;97872.53;;;7.74;92.58
73085;BME280;62974;49.460;10.892;2022-11-14T11:33:35;97861.81;;;8.40;89.88
73085;BME280;62974;49.460;10.892;2022-11-14T11:36:06;97854.63;;;8.26;90.02
73085;BME280;62974;49.460;10.892;2022-11-14T11:38:37;97853.53;;;8.35;89.67
73085;BME280;62974;49.460;10.892;2022-11-14T11:41:15;97851.03;;;7.67;92.54
73085;BME280;62974;49.460;10.892;2022-11-14T11:44:06;97844.81;;;7.89;91.11
73085;BME280;62974;49.460;10.892;2022-11-14T11:46:43;97841.50;;;7.87;91.04
73085;BME280;62974;49.460;10.892;2022-11-14T11:49:17;97840.97;;;8.07;92.66
73085;BME280;62974;49.460;10.892;2022-11-14T11:51:46;97843.50;;;7.71;93.23
73085;BME280;62974;49.460;10.892;2022-11-14T11:54:17;97844.06;;;7.81;93.64
73085;BME280;62974;49.460;10.892;2022-11-14T11:56:48;97844.19;;;8.02;92.40
73085;BME280;62974;49.460;10.892;2022-11-14T11:59:25;97843.72;;;7.98;93.69
73085;BME280;62974;49.460;10.892;2022-11-14T12:02:02;97849.16;;;8.05;92.98
73085;BME280;62974;49.460;10.892;2022-11-14T12:04:29;97846.03;;;8.01;93.21
73085;BME280;62974;49.460;10.892;2022-11-14T12:07:02;97834.63;;;8.37;93.16
73085;BME280;62974;49.460;10.892;2022-11-14T12:09:35;97838.81;;;8.17;93.36
73085;BME280;62974;49.460;10.892;2022-11-14T12:12:24;97841.78;;;8.22;92.97
73085;BME280;62974;49.460;10.892;2022-11-14T12:15:00;97842.53;;;8.45;91.00
73085;BME280;62974;49.460;10.892;2022-11-14T12:17:55;97835.59;;;8.65;89.98
73085;BME280;62974;49.460;10.892;2022-11-14T12:20:40;97836.16;;;8.75;91.11
73085;BME280;62974;49.460;10.892;2022-11-14T12:23:36;97841.56;;;8.31;93.11
73085;BME280;62974;49.460;10.892;2022-11-14T12:26:20;97836.72;;;8.71;91.86
73085;BME280;62974;49.460;10.892;2022-11-14T12:28:58;97839.75;;;8.53;93.12
73085;BME280;62974;49.460;10.892;2022-11-14T12:31:31;97842.38;;;8.32;93.77
73085;BME280;62974;49.460;10.892;2022-11-14T12:34:03;97843.38;;;8.45;93.41
73085;BME280;62974;49.460;10.892;2022-11-14T12:36:34;97843.38;;;8.45;93.29
73085;BME280;62974;49.460;10.892;2022-11-14T12:39:02;97835.97;;;8.62;92.60
73085;BME280;62974;49.460;10.892;2022-11-14T12:41:32;97819.13;;;9.04;89.91
73085;BME280;62974;49.460;10.892;2022-11-14T12:44:18;97829.41;;;8.65;91.42
73085;BME280;62974;49.460;10.892;2022-11-14T12:47:11;97830.69;;;8.69;91.44
73085;BME280;62974;49.460;10.892;2022-11-14T12:49:57;97822.50;;;9.27;88.97
73085;BME280;62974;49.460;10.892;2022-11-14T12:52:42;97829.84;;;8.83;91.03
73085;BME280;62974;49.460;10.892;2022-11-14T12:58:18;97817.09;;;9.49;87.97
73085;BME280;62974;49.460;10.892;2022-11-14T13:01:05;97816.66;;;9.03;89.23
73085;BME280;62974;49.460;10.892;2022-11-14T13:03:47;97816.28;;;9.06;90.04
73085;BME280;62974;49.460;10.892;2022-11-14T13:06:22;97807.53;;;8.97;89.64
73085;BME280;62974;49.460;10.892;2022-11-14T13:09:09;97811.94;;;9.26;89.09
73085;BME280;62974;49.460;10.892;2022-11-14T13:11:43;97807.69;;;9.10;89.53
73085;BME280;62974;49.460;10.892;2022-11-14T13:14:29;97800.84;;;9.50;87.49
73085;BME280;62974;49.460;10.892;2022-11-14T13:17:23;97790.03;;;9.43;87.42
73085;BME280;62974;49.460;10.892;2022-11-14T13:20:27;97796.88;;;9.25;88.93